Time;durP1;ratioP1;P1;durP2;ratioP2;P2;SDS_P1;SDS_P2;PMS_P1;PMS_P2;Temp;Humidity;BMP_temperature;BMP_pressure;BME280_temperature;BME280_humidity;BME280_pressure;Samples;Min_cycle;Max_cycle;Signal;HPM_P1;HPM_P2
2022/06/03 00:02:25;;;;;;;7.85;4.45;;;10.00;99.90;;;;;;5037902;28;20411;-88
2022/06/03 00:04:56;;;;;;;10.80;4.55;;;10.00;99.90;;;;;;5054418;28;20075;-88
2022/06/03 00:07:41;;;;;;;8.07;4.72;;;9.90;99.90;;;;;;5054156;28;20492;-88
2022/06/03 00:10:20;;;;;;;10.02;4.78;;;10.00;99.90;;;;;;5068290;28;20500;-89
2022/06/03 00:13:04;;;;;;;8.32;4.60;;;10.40;99.90;;;;;;5073828;28;20044;-88
2022/06/03 00:15:35;;;;;;;7.72;4.70;;;10.10;99.90;;;;;;5037739;28;20472;-88
2022/06/03 00:18:13;;;;;;;10.73;4.95;;;9.90;99.90;;;;;;5053669;28;20110;-88
2022/06/03 00:21:02;;;;;;;7.00;4.88;;;10.30;99.90;;;;;;5037009;28;20049;-88
2022/06/03 00:23:54;;;;;;;8.00;4.93;;;9.90;99.90;;;;;;5037733;28;20084;-88
2022/06/03 00:26:48;;;;;;;7.97;5.45;;;9.90;99.90;;;;;;5037198;28;20049;-88
2022/06/03 00:29:41;;;;;;;10.75;5.22;;;10.40;99.90;;;;;;5039599;28;20053;-88
2022/06/03 00:32:17;;;;;;;9.85;5.72;;;9.90;99.90;;;;;;5037159;28;20053;-88
2022/06/03 00:34:46;;;;;;;;;;;10.00;99.90;;;;;;5054277;28;20103;-88
2022/06/03 00:37:14;;;;;;;10.40;6.82;;;9.80;99.90;;;;;;5036939;28;19921;-88
2022/06/03 00:40:17;;;;;;;10.07;5.70;;;10.30;99.90;;;;;;5053431;28;20045;-88
2022/06/03 00:43:01;;;;;;;10.68;6.63;;;9.80;99.90;;;;;;5054444;28;20488;-88
2022/06/03 00:45:45;;;;;;;8.68;5.90;;;9.80;99.90;;;;;;5036828;28;20385;-88
2022/06/03 00:48:36;;;;;;;10.85;6.53;;;9.80;99.90;;;;;;5036471;28;20052;-89
2022/06/03 00:51:23;;;;;;;10.00;6.53;;;9.80;99.90;;;;;;5036839;28;20077;-88
2022/06/03 00:54:17;;;;;;;11.77;6.38;;;9.80;99.90;;;;;;5053138;28;20041;-88
2022/06/03 00:56:54;;;;;;;10.88;6.55;;;9.80;99.90;;;;;;5036721;28;20041;-88
2022/06/03 00:59:39;;;;;;;10.90;6.55;;;9.80;99.90;;;;;;5036788;28;20045;-88
2022/06/03 01:02:24;;;;;;;11.55;6.93;;;10.20;99.90;;;;;;5036081;28;20053;-88
2022/06/03 01:05:02;;;;;;;12.88;7.20;;;10.30;99.90;;;;;;5036299;28;20093;-89
2022/06/03 01:07:57;;;;;;;14.02;6.75;;;9.70;99.90;;;;;;5052675;28;20496;-89
2022/06/03 01:10:55;;;;;;;11.10;6.70;;;9.70;99.90;;;;;;5053502;28;20407;-88
2022/06/03 01:13:57;;;;;;;13.13;7.00;;;9.70;99.90;;;;;;5053124;28;20045;-88
2022/06/03 01:16:48;;;;;;;12.43;6.95;;;9.70;99.90;;;;;;5036360;28;20036;-88
2022/06/03 01:19:37;;;;;;;12.07;7.07;;;9.60;99.90;;;;;;5036063;28;20051;-88
2022/06/03 01:22:39;;;;;;;10.15;7.20;;;10.00;99.90;;;;;;4960654;28;20054;-88
2022/06/03 01:25:25;;;;;;;12.50;7.55;;;9.60;99.90;;;;;;4976538;28;20137;-89
2022/06/03 01:28:23;;;;;;;11.80;6.90;;;9.60;99.90;;;;;;4959957;28;20061;-89
2022/06/03 01:30:59;;;;;;;9.40;6.50;;;9.60;99.90;;;;;;4960493;28;20441;-88
2022/06/03 01:33:39;;;;;;;11.00;7.20;;;9.30;99.90;;;;;;4961049;28;20062;-89
2022/06/03 01:36:23;;;;;;;10.35;6.53;;;9.60;99.90;;;;;;4964172;28;20375;-89
2022/06/03 01:39:13;;;;;;;10.27;6.68;;;9.60;99.90;;;;;;4963613;28;20042;-88
2022/06/03 01:42:15;;;;;;;12.40;7.40;;;9.50;99.90;;;;;;4963841;28;20402;-88
2022/06/03 01:45:14;;;;;;;12.98;7.20;;;9.50;99.90;;;;;;4963567;28;20042;-88
2022/06/03 01:48:10;;;;;;;15.30;7.45;;;9.50;99.90;;;;;;4949856;28;20503;-88
2022/06/03 01:51:13;;;;;;;11.90;7.40;;;9.40;99.90;;;;;;4995605;28;20101;-88
2022/06/03 01:53:44;;;;;;;12.15;7.45;;;9.50;99.90;;;;;;4979933;28;20286;-88
2022/06/03 01:56:25;;;;;;;14.63;7.78;;;9.40;99.90;;;;;;4963592;28;20528;-88
2022/06/03 01:59:06;;;;;;;12.23;7.07;;;9.40;99.90;;;;;;4989991;28;20052;-88
2022/06/03 02:01:46;;;;;;;11.82;7.13;;;9.40;99.90;;;;;;5055931;28;20132;-89
2022/06/03 02:04:40;;;;;;;12.70;7.43;;;9.30;99.90;;;;;;5055544;28;20041;-88
2022/06/03 02:07:24;;;;;;;12.30;7.10;;;9.30;99.90;;;;;;5038742;28;20045;-89
2022/06/03 02:10:12;;;;;;;12.25;7.32;;;9.30;99.90;;;;;;5038899;28;20056;-88
2022/06/03 02:13:11;;;;;;;13.15;7.53;;;9.80;99.90;;;;;;5055814;28;20053;-89
2022/06/03 02:16:14;;;;;;;13.27;7.40;;;9.30;99.90;;;;;;5039116;28;20492;-88
2022/06/03 02:19:04;;;;;;;12.65;7.43;;;9.30;99.90;;;;;;5038692;28;20044;-88
2022/06/03 02:22:10;;;;;;;15.80;7.85;;;9.20;99.90;;;;;;5055260;28;20056;-88
2022/06/03 02:24:39;;;;;;;;;;;9.30;99.90;;;;;;4979536;28;20042;-88
2022/06/03 02:27:18;;;;;;;12.88;6.72;;;9.20;99.90;;;;;;4984690;28;19920;-88
2022/06/03 02:33:18;;;;;;;11.95;7.15;;;9.20;99.90;;;;;;4978580;28;20043;-88
2022/06/03 02:36:11;;;;;;;13.18;7.28;;;9.20;99.90;;;;;;4978753;28;20050;-88
2022/06/03 02:39:10;;;;;;;12.00;7.10;;;9.20;99.90;;;;;;4962581;28;20057;-89
2022/06/03 02:41:56;;;;;;;11.80;7.35;;;9.20;99.90;;;;;;4978690;28;20054;-88
2022/06/03 02:44:42;;;;;;;14.43;8.18;;;9.10;99.90;;;;;;4962540;28;20046;-88
2022/06/03 02:47:08;;;;;;;12.00;7.80;;;9.10;99.90;;;;;;4961323;28;20072;-88
2022/06/03 02:49:45;;;;;;;11.18;7.28;;;9.20;99.90;;;;;;4978430;28;20137;-88
2022/06/03 02:52:11;;;;;;;16.58;8.13;;;9.50;99.90;;;;;;4962741;28;20371;-88
2022/06/03 02:55:15;;;;;;;12.05;7.72;;;9.10;99.90;;;;;;4962115;28;20181;-88
2022/06/03 02:57:50;;;;;;;14.48;7.90;;;9.10;99.90;;;;;;4959672;28;20124;-89
2022/06/03 03:00:48;;;;;;;12.38;7.60;;;9.30;99.90;;;;;;5038441;28;20055;-88
2022/06/03 03:03:39;;;;;;;12.38;7.80;;;9.10;99.90;;;;;;5023040;28;20048;-88
2022/06/03 03:06:41;;;;;;;14.95;8.48;;;9.10;99.90;;;;;;5038067;28;20476;-88
2022/06/03 03:09:29;;;;;;;16.38;8.55;;;9.10;99.90;;;;;;5037742;28;20485;-89
2022/06/03 03:12:16;;;;;;;15.65;8.05;;;9.10;99.90;;;;;;5054472;28;20064;-89
2022/06/03 03:15:06;;;;;;;13.50;8.05;;;9.10;99.90;;;;;;5038008;28;20084;-88
2022/06/03 03:18:12;;;;;;;11.98;8.02;;;9.20;99.90;;;;;;5054342;28;20056;-88
2022/06/03 03:21:03;;;;;;;12.43;8.27;;;9.20;99.90;;;;;;5054832;28;20214;-88
2022/06/03 03:24:00;;;;;;;12.70;8.07;;;9.20;99.90;;;;;;5066191;28;20052;-88
2022/06/03 03:26:34;;;;;;;13.82;8.50;;;9.20;99.90;;;;;;5068124;28;20044;-88
2022/06/03 03:29:22;;;;;;;12.98;8.02;;;9.20;99.90;;;;;;5057255;28;20045;-88
2022/06/03 03:32:13;;;;;;;13.77;7.68;;;9.20;99.90;;;;;;5054574;28;20508;-88
2022/06/03 03:35:02;;;;;;;14.80;8.32;;;9.10;99.90;;;;;;5038263;28;20495;-88
2022/06/03 03:37:39;;;;;;;11.65;6.55;;;9.10;99.90;;;;;;5053901;28;20405;-89
2022/06/03 03:40:25;;;;;;;14.82;7.60;;;9.10;99.90;;;;;;5037217;28;20045;-88
2022/06/03 03:43:12;;;;;;;15.07;8.02;;;9.10;99.90;;;;;;5037162;28;20059;-88
2022/06/03 03:46:09;;;;;;;15.18;7.95;;;9.20;99.90;;;;;;5037319;28;20083;-88
2022/06/03 03:49:15;;;;;;;12.82;7.28;;;9.10;99.90;;;;;;5053630;28;20045;-88
2022/06/03 03:52:12;;;;;;;11.40;6.78;;;9.20;99.90;;;;;;5054455;28;20059;-88
2022/06/03 03:55:12;;;;;;;12.65;7.60;;;9.10;99.90;;;;;;5037026;28;20049;-88
2022/06/03 03:57:59;;;;;;;12.63;8.13;;;9.10;99.90;;;;;;5036766;28;20143;-89
2022/06/03 04:01:11;;;;;;;12.85;7.72;;;9.10;99.90;;;;;;5054000;28;20083;-88
2022/06/03 04:04:15;;;;;;;12.05;7.00;;;9.20;99.90;;;;;;5036672;28;20045;-88
2022/06/03 04:06:59;;;;;;;14.23;7.00;;;9.20;99.90;;;;;;4961070;28;20046;-88
2022/06/03 04:09:48;;;;;;;13.10;6.90;;;9.20;99.90;;;;;;4961226;28;20083;-88
2022/06/03 04:12:26;;;;;;;13.50;7.72;;;9.20;99.90;;;;;;4960516;28;20058;-89
2022/06/03 04:15:23;;;;;;;13.07;7.15;;;9.50;99.90;;;;;;4960784;28;20129;-88
2022/06/03 04:18:25;;;;;;;13.82;7.22;;;9.20;99.90;;;;;;4976991;28;20149;-89
2022/06/03 04:21:18;;;;;;;12.65;6.78;;;9.20;99.90;;;;;;4961356;28;20050;-88
2022/06/03 04:24:01;;;;;;;14.88;7.15;;;9.20;99.90;;;;;;4960971;28;20482;-88
2022/06/03 04:26:51;;;;;;;12.32;6.68;;;9.20;99.90;;;;;;4978579;28;20065;-88
2022/06/03 04:29:54;;;;;;;11.63;7.15;;;9.30;99.90;;;;;;4960522;28;20053;-88
2022/06/03 04:33:02;;;;;;;10.90;6.43;;;9.30;99.90;;;;;;4976592;28;20082;-89
2022/06/03 04:36:04;;;;;;;12.25;6.25;;;9.40;99.90;;;;;;4976912;28;20050;-88
2022/06/03 04:38:49;;;;;;;13.00;7.13;;;9.40;99.90;;;;;;5031161;28;20480;-88
2022/06/03 04:41:52;;;;;;;10.88;6.80;;;9.50;99.90;;;;;;5042680;28;20043;-88
2022/06/03 04:44:36;;;;;;;13.65;6.88;;;9.60;99.90;;;;;;5042152;28;20468;-88
2022/06/03 04:47:27;;;;;;;11.13;6.57;;;10.30;99.90;;;;;;5036490;28;20132;-88
2022/06/03 04:50:20;;;;;;;12.18;6.03;;;9.80;99.90;;;;;;5036609;28;20053;-88
2022/06/03 04:53:46;;;;;;;10.13;6.07;;;9.80;99.90;;;;;;5036678;28;20102;-88
2022/06/03 04:56:56;;;;;;;10.70;6.38;;;9.90;99.90;;;;;;5036540;28;20048;-88
2022/06/03 05:00:03;;;;;;;13.48;6.70;;;10.00;99.90;;;;;;5053239;28;20041;-88
2022/06/03 05:02:54;;;;;;;10.57;6.63;;;10.20;99.90;;;;;;5035682;28;20056;-88
2022/06/03 05:05:47;;;;;;;10.48;6.15;;;10.30;99.90;;;;;;5052879;28;20097;-88
2022/06/03 05:08:51;;;;;;;10.48;5.70;;;10.40;99.90;;;;;;5036776;28;20077;-88
2022/06/03 05:12:08;;;;;;;9.10;5.78;;;10.50;99.90;;;;;;5056274;28;20407;-88
2022/06/03 05:14:51;;;;;;;8.80;5.60;;;10.60;99.90;;;;;;4964011;28;20046;-89
2022/06/03 05:17:41;;;;;;;9.38;5.28;;;10.70;99.90;;;;;;4963945;28;20050;-88
2022/06/03 05:20:18;;;;;;;8.95;5.22;;;10.90;99.90;;;;;;4963459;28;20042;-89
2022/06/03 05:23:19;;;;;;;7.45;4.80;;;10.90;99.90;;;;;;4963628;28;20058;-89
2022/06/03 05:26:09;;;;;;;8.68;5.10;;;11.10;99.90;;;;;;4963726;28;20042;-88
2022/06/03 05:28:52;;;;;;;9.15;5.45;;;11.20;99.90;;;;;;4979660;28;20046;-89
2022/06/03 05:31:48;;;;;;;5.95;4.32;;;11.30;99.90;;;;;;4979696;28;20540;-89
2022/06/03 05:34:31;;;;;;;6.50;4.13;;;11.40;99.90;;;;;;4963086;28;20540;-89
2022/06/03 05:37:44;;;;;;;5.90;4.15;;;11.60;99.90;;;;;;4963224;28;20517;-90
2022/06/03 05:40:33;;;;;;;7.18;4.07;;;11.70;99.90;;;;;;4979484;28;20055;-89
2022/06/03 05:43:12;;;;;;;5.40;3.78;;;11.80;99.90;;;;;;4963110;28;20050;-88
2022/06/03 05:46:17;;;;;;;5.40;3.72;;;11.90;99.90;;;;;;4979209;28;20096;-88
2022/06/03 05:49:09;;;;;;;5.63;3.63;;;12.00;99.90;;;;;;4978871;28;20049;-89
2022/06/03 05:51:56;;;;;;;7.63;3.55;;;12.10;99.90;;;;;;5034847;28;20045;-89
2022/06/03 05:55:04;;;;;;;6.93;3.47;;;12.20;99.90;;;;;;5055481;28;20056;-89
2022/06/03 05:57:41;;;;;;;7.25;3.50;;;12.30;99.90;;;;;;5039141;28;20092;-89
2022/06/03 06:00:39;;;;;;;7.80;3.20;;;12.40;99.90;;;;;;5038629;28;20037;-89
2022/06/03 06:03:11;;;;;;;5.55;3.28;;;12.50;99.90;;;;;;5038342;28;20056;-89
2022/06/03 06:05:48;;;;;;;5.80;3.20;;;12.60;99.90;;;;;;5038496;28;20037;-89
2022/06/03 06:08:43;;;;;;;6.22;2.90;;;12.60;99.90;;;;;;5054832;28;20131;-89
2022/06/03 06:11:45;;;;;;;5.85;3.10;;;12.70;99.90;;;;;;4978381;28;20053;-89
2022/06/03 06:14:17;;;;;;;5.47;2.97;;;12.90;99.90;;;;;;4962279;28;20046;-89
2022/06/03 06:16:44;;;;;;;5.35;3.28;;;13.00;99.90;;;;;;4978097;28;20630;-88
2022/06/03 06:19:58;;;;;;;5.20;3.35;;;13.10;99.90;;;;;;4962177;28;20514;-88
2022/06/03 06:22:35;;;;;;;5.55;2.80;;;13.30;99.90;;;;;;4886241;29;20377;-89
2022/06/03 06:25:18;;;;;;;5.00;2.90;;;13.50;99.90;;;;;;4917652;29;20063;-89
2022/06/03 06:27:57;;;;;;;5.30;2.92;;;13.80;99.90;;;;;;4901289;28;20064;-89
2022/06/03 06:30:49;;;;;;;4.22;2.20;;;14.10;99.90;;;;;;4885964;29;20146;-88
2022/06/03 06:33:32;;;;;;;4.05;2.33;;;13.80;99.90;;;;;;4885923;29;20060;-89
2022/06/03 06:36:28;;;;;;;5.55;2.40;;;14.00;99.90;;;;;;4901574;29;20060;-88
2022/06/03 06:38:57;;;;;;;6.70;2.53;;;14.10;99.90;;;;;;4886227;29;20141;-89
2022/06/03 06:41:37;;;;;;;7.30;2.72;;;14.30;99.90;;;;;;4885927;29;20048;-88
2022/06/03 06:44:08;;;;;;;5.35;2.40;;;14.30;99.90;;;;;;4886012;29;20530;-89
2022/06/03 06:47:04;;;;;;;3.65;2.05;;;14.60;99.90;;;;;;4885916;29;20068;-89
2022/06/03 06:49:41;;;;;;;4.30;2.22;;;14.40;99.90;;;;;;4942470;28;20059;-87
2022/06/03 06:52:44;;;;;;;5.20;2.45;;;14.90;99.90;;;;;;4958657;28;20062;-89
2022/06/03 06:55:20;;;;;;;3.67;2.28;;;14.60;99.90;;;;;;4958464;28;20043;-85
2022/06/03 06:57:49;;;;;;;3.75;2.30;;;14.70;99.90;;;;;;4974086;28;20035;-87
2022/06/03 07:00:29;;;;;;;3.75;2.05;;;15.20;99.90;;;;;;5058969;28;20056;-86
2022/06/03 07:03:16;;;;;;;4.30;2.20;;;15.10;99.90;;;;;;5036971;28;20048;-86
2022/06/03 07:06:06;;;;;;;5.03;2.20;;;15.00;99.90;;;;;;5037248;28;20053;-86
2022/06/03 07:08:42;;;;;;;5.75;2.40;;;15.20;99.90;;;;;;5053261;28;20103;-86
2022/06/03 07:11:17;;;;;;;5.35;2.10;;;15.30;99.90;;;;;;5036596;28;20083;-86
2022/06/03 07:13:48;;;;;;;4.10;2.13;;;15.50;99.90;;;;;;5036957;28;20099;-86
2022/06/03 07:19:47;;;;;;;4.22;2.13;;;15.60;99.90;;;;;;5036979;28;20092;-86
2022/06/03 07:22:24;;;;;;;3.70;1.77;;;15.80;99.90;;;;;;5053530;28;20483;-87
2022/06/03 07:24:58;;;;;;;2.70;1.60;;;16.00;99.90;;;;;;5036711;28;20075;-85
2022/06/03 07:27:43;;;;;;;3.42;1.90;;;16.10;99.90;;;;;;5053803;28;20099;-86
2022/06/03 07:30:36;;;;;;;3.25;1.90;;;16.10;99.90;;;;;;5053454;28;20052;-87
2022/06/03 07:33:16;;;;;;;4.50;2.05;;;16.30;99.90;;;;;;5052956;28;20056;-88
2022/06/03 07:35:50;;;;;;;4.40;2.22;;;16.40;99.90;;;;;;5053301;28;20041;-86
2022/06/03 07:38:15;;;;;;;4.88;2.00;;;16.50;99.90;;;;;;5053269;28;20392;-87
2022/06/03 07:40:56;;;;;;;5.13;2.13;;;16.80;99.90;;;;;;5036643;28;20045;-86
2022/06/03 07:43:41;;;;;;;3.47;1.70;;;16.70;99.90;;;;;;5036595;28;20048;-87
2022/06/03 07:46:12;;;;;;;3.40;1.95;;;16.90;99.90;;;;;;5036312;28;20088;-88
2022/06/03 07:48:39;;;;;;;3.38;1.70;;;17.10;99.90;;;;;;5052806;28;20053;-86
2022/06/03 07:51:09;;;;;;;4.97;2.15;;;17.10;99.90;;;;;;5052968;28;20037;-86
2022/06/03 07:54:08;;;;;;;4.07;1.85;;;17.30;99.90;;;;;;5066635;28;20045;-88
2022/06/03 07:56:46;;;;;;;4.97;1.88;;;17.40;99.90;;;;;;5061921;28;20044;-88
2022/06/03 07:59:19;;;;;;;4.75;2.03;;;17.50;99.90;;;;;;5056767;28;20040;-88
2022/06/03 08:01:58;;;;;;;4.75;1.90;;;17.60;99.90;;;;;;5066850;28;20037;-87
2022/06/03 08:04:35;;;;;;;3.55;2.00;;;17.60;99.90;;;;;;5049058;28;20550;-87
2022/06/03 08:12:35;;;;;;;3.65;1.50;;;18.00;99.90;;;;;;5063742;28;20053;-87
2022/06/03 08:15:23;;;;;;;3.90;1.90;;;18.10;99.90;;;;;;5064816;28;20052;-87
2022/06/03 08:17:50;;;;;;;2.92;1.92;;;18.20;99.90;;;;;;5048265;28;20090;-86
2022/06/03 08:20:19;;;;;;;3.40;1.80;;;18.40;99.90;;;;;;5064690;28;20104;-87
2022/06/03 08:22:46;;;;;;;2.92;1.73;;;18.40;99.90;;;;;;5064094;28;20079;-87
2022/06/03 08:25:15;;;;;;;2.53;1.50;;;18.50;99.90;;;;;;5064051;28;20101;-87
2022/06/03 08:27:41;;;;;;;3.75;2.00;;;18.60;99.90;;;;;;5048603;28;20037;-87
2022/06/03 08:30:10;;;;;;;3.38;2.20;;;18.60;99.90;;;;;;5065547;28;20041;-86
2022/06/03 08:32:42;;;;;;;4.03;2.20;;;18.70;99.90;;;;;;5045549;28;20052;-87
2022/06/03 08:35:12;;;;;;;4.93;2.30;;;18.80;99.90;;;;;;5063749;28;20558;-87
2022/06/03 08:37:47;;;;;;;4.65;1.98;;;18.90;99.90;;;;;;5061630;28;20047;-87
2022/06/03 08:40:15;;;;;;;4.07;1.85;;;19.00;99.90;;;;;;5064273;28;20094;-87
2022/06/03 08:42:49;;;;;;;3.33;2.10;;;19.10;99.90;;;;;;5045954;28;20492;-88
2022/06/03 08:45:33;;;;;;;4.53;2.10;;;19.20;99.90;;;;;;5069340;28;20088;-87
2022/06/03 08:48:06;;;;;;;3.78;1.98;;;19.30;99.90;;;;;;5070440;28;20052;-88
2022/06/03 08:50:55;;;;;;;3.10;1.92;;;19.40;99.90;;;;;;5071711;28;20092;-87
2022/06/03 08:53:42;;;;;;;5.43;2.53;;;19.50;99.90;;;;;;5072619;28;20049;-87
2022/06/03 08:56:16;;;;;;;5.22;2.28;;;19.50;99.90;;;;;;5073711;28;20045;-86
2022/06/03 08:58:57;;;;;;;4.18;2.00;;;19.60;99.90;;;;;;5067623;28;20109;-87
2022/06/03 09:01:41;;;;;;;4.18;2.10;;;19.70;99.90;;;;;;5048197;28;20037;-88
2022/06/03 09:04:22;;;;;;;4.15;2.17;;;19.80;99.90;;;;;;5065803;28;20052;-88
2022/06/03 09:07:10;;;;;;;2.78;2.00;;;19.80;99.90;;;;;;5059919;28;20052;-88
2022/06/03 09:10:04;;;;;;;4.35;2.00;;;20.00;99.90;;;;;;5039706;28;20055;-87
2022/06/03 09:12:30;;;;;;;5.35;2.00;;;20.00;99.90;;;;;;5061688;28;20069;-88
2022/06/03 09:15:11;;;;;;;3.05;1.70;;;20.00;99.90;;;;;;5055543;28;20053;-87
2022/06/03 09:17:48;;;;;;;3.58;1.83;;;20.10;99.90;;;;;;5039963;28;20048;-87
2022/06/03 09:20:21;;;;;;;3.13;2.15;;;20.30;99.90;;;;;;5040006;28;20056;-87
2022/06/03 09:22:48;;;;;;;3.85;2.10;;;20.40;99.90;;;;;;5056160;28;20049;-87
2022/06/03 09:25:16;;;;;;;4.05;1.85;;;20.40;99.90;;;;;;5039492;28;20553;-87
2022/06/03 09:27:43;;;;;;;5.20;2.03;;;20.50;99.90;;;;;;5039290;28;20041;-87
2022/06/03 09:30:12;;;;;;;9.15;2.15;;;20.60;99.90;;;;;;5056196;28;20053;-87
2022/06/03 09:32:44;;;;;;;4.65;1.92;;;20.60;99.90;;;;;;5055944;28;20099;-86
2022/06/03 09:35:16;;;;;;;4.80;2.10;;;20.60;99.90;;;;;;5055771;28;20136;-87
2022/06/03 09:37:46;;;;;;;3.85;1.90;;;20.60;99.90;;;;;;5039050;28;20076;-87
2022/06/03 09:40:20;;;;;;;3.72;2.00;;;20.60;99.90;;;;;;5039336;28;20041;-87
2022/06/03 09:42:52;;;;;;;2.92;1.70;;;20.60;99.90;;;;;;5056139;28;20103;-88
2022/06/03 09:45:20;;;;;;;3.58;1.80;;;20.80;99.90;;;;;;5055533;28;20055;-87
2022/06/03 09:47:49;;;;;;;2.83;2.08;;;20.90;99.90;;;;;;5055476;28;20041;-86
2022/06/03 09:50:20;;;;;;;3.13;1.90;;;21.00;99.90;;;;;;5038636;28;20056;-88
2022/06/03 09:52:49;;;;;;;3.70;2.17;;;21.00;99.90;;;;;;5055593;28;20524;-87
2022/06/03 09:55:29;;;;;;;4.60;1.90;;;21.20;99.90;;;;;;5055721;28;20131;-88
2022/06/03 09:57:58;;;;;;;3.83;2.10;;;21.20;99.90;;;;;;5039226;28;20436;-86
2022/06/03 10:00:29;;;;;;;3.63;1.65;;;21.20;99.90;;;;;;5038776;28;20037;-87
2022/06/03 10:03:04;;;;;;;2.60;1.80;;;21.30;99.90;;;;;;5039032;28;20053;-87
2022/06/03 10:05:30;;;;;;;3.70;1.70;;;21.40;99.90;;;;;;5055033;28;20128;-88
2022/06/03 10:08:03;;;;;;;3.90;2.20;;;21.50;99.90;;;;;;5038508;28;20132;-86
2022/06/03 10:13:14;;;;;;;;;;;21.70;99.90;;;;;;5055837;28;20044;-87
2022/06/03 10:15:46;;;;;;;3.05;1.80;;;21.60;99.90;;;;;;5038445;28;19916;-87
2022/06/03 10:18:31;;;;;;;4.50;1.70;;;21.70;99.90;;;;;;5038220;28;20048;-87
2022/06/03 10:21:08;;;;;;;4.00;2.00;;;21.80;99.90;;;;;;5038240;28;20080;-87
2022/06/03 10:23:45;;;;;;;4.50;1.77;;;21.90;99.90;;;;;;5038239;28;20099;-87
2022/06/03 10:26:24;;;;;;;3.03;1.75;;;22.00;99.90;;;;;;5038086;28;20124;-87
2022/06/03 10:28:52;;;;;;;4.07;1.83;;;22.10;99.90;;;;;;5037960;28;20056;-88
2022/06/03 10:31:27;;;;;;;3.08;1.77;;;22.00;99.90;;;;;;5038107;28;20126;-86
2022/06/03 10:33:56;;;;;;;2.63;1.70;;;21.90;99.90;;;;;;5037811;28;20131;-87
2022/06/03 10:36:26;;;;;;;3.65;1.70;;;22.10;99.90;;;;;;5038422;28;20049;-87
2022/06/03 10:38:52;;;;;;;3.35;1.80;;;22.20;99.90;;;;;;5038178;28;20369;-87
2022/06/03 10:41:20;;;;;;;2.88;1.40;;;22.20;99.90;;;;;;5054709;28;20060;-86
2022/06/03 10:43:48;;;;;;;2.88;1.80;;;22.40;99.90;;;;;;5055239;28;20419;-87
2022/06/03 10:46:19;;;;;;;3.53;2.10;;;22.40;99.90;;;;;;5054861;28;20048;-87
2022/06/03 10:48:46;;;;;;;4.18;1.60;;;22.60;99.90;;;;;;5037201;28;20044;-86
2022/06/03 11:02:46;;;;;;;3.30;1.60;;;23.20;99.90;;;;;;5016624;28;20060;-87
2022/06/03 11:05:19;;;;;;;3.85;1.95;;;23.10;99.90;;;;;;4994745;28;20373;-88
2022/06/03 11:08:01;;;;;;;2.80;1.45;;;23.20;99.90;;;;;;5016231;28;20041;-85
2022/06/03 11:10:30;;;;;;;4.30;1.77;;;23.30;99.60;;;;;;5001062;28;20131;-88
2022/06/03 11:13:03;;;;;;;3.83;1.60;;;23.40;99.90;;;;;;5000761;28;20052;-87
2022/06/03 11:18:15;;;;;;;2.25;1.70;;;23.80;99.90;;;;;;5057075;22;20068;-90
2022/06/03 11:20:53;;;;;;;3.75;1.80;;;23.60;99.90;;;;;;5097576;23;20503;-90
2022/06/03 11:23:20;;;;;;;3.47;1.63;;;23.60;99.90;;;;;;5036177;23;20058;-89
2022/06/03 11:25:53;;;;;;;2.85;1.50;;;23.50;99.90;;;;;;5056832;23;20041;-90
2022/06/03 11:28:41;;;;;;;3.22;1.63;;;23.50;99.90;;;;;;5039813;28;20107;-89
2022/06/03 11:31:23;;;;;;;3.35;1.73;;;23.60;99.40;;;;;;5075757;23;20057;-89
2022/06/03 11:36:17;;;;;;;2.85;1.40;;;23.70;99.70;;;;;;5072884;22;20042;-89
2022/06/03 11:39:11;;;;;;;2.80;1.88;;;23.80;99.90;;;;;;5018464;28;20107;-91
2022/06/03 11:42:05;;;;;;;5.45;1.50;;;23.80;99.10;;;;;;5022015;23;20077;-89
2022/06/03 11:45:13;;;;;;;2.80;1.85;;;23.90;99.30;;;;;;5018109;23;20091;-89
2022/06/03 11:47:51;;;;;;;3.20;1.50;;;23.70;97.70;;;;;;5012495;23;20045;-90
2022/06/03 11:50:20;;;;;;;3.00;1.60;;;23.90;99.90;;;;;;5040545;23;20150;-89
2022/06/03 11:52:51;;;;;;;2.80;1.77;;;24.00;99.90;;;;;;5016670;28;20045;-89
2022/06/03 11:55:23;;;;;;;4.13;1.80;;;24.10;99.70;;;;;;5039974;23;20505;-89
2022/06/03 12:00:19;;;;;;;2.58;1.50;;;23.70;99.90;;;;;;5063056;22;20391;-88
2022/06/03 12:03:21;;;;;;;2.83;1.60;;;23.80;99.50;;;;;;5032813;28;20101;-89
2022/06/03 12:05:53;;;;;;;3.55;1.73;;;23.90;97.40;;;;;;5016894;28;20049;-89
2022/06/03 12:09:05;;;;;;;2.58;1.63;;;24.10;97.70;;;;;;5016720;28;20095;-88
2022/06/03 12:15:17;;;;;;;4.28;1.95;;;24.40;98.80;;;;;;4900285;29;20048;-89
2022/06/03 12:17:48;;;;;;;3.53;1.65;;;23.70;98.80;;;;;;4883760;29;20536;-89
2022/06/03 12:20:32;;;;;;;3.10;1.85;;;24.00;99.70;;;;;;4900142;29;20060;-87
2022/06/03 12:23:18;;;;;;;2.50;1.42;;;24.30;94.90;;;;;;4899784;29;20152;-89
2022/06/03 12:25:51;;;;;;;3.00;1.48;;;24.40;99.90;;;;;;4884244;29;20048;-89
2022/06/03 12:28:22;;;;;;;2.55;1.40;;;24.70;99.90;;;;;;4899561;28;20056;-89
2022/06/03 12:31:00;;;;;;;2.63;1.50;;;24.40;99.50;;;;;;4899860;29;20044;-88
2022/06/03 12:34:03;;;;;;;2.70;1.70;;;24.50;98.20;;;;;;4884131;29;20135;-89
2022/06/03 12:37:00;;;;;;;3.17;2.00;;;24.70;98.90;;;;;;4900115;29;20150;-88
2022/06/03 12:39:53;;;;;;;3.03;1.70;;;24.80;98.00;;;;;;4899791;29;20535;-89
2022/06/03 12:42:30;;;;;;;3.42;1.60;;;24.90;98.30;;;;;;4884310;29;20056;-88
2022/06/03 12:44:56;;;;;;;3.50;1.40;;;25.00;98.80;;;;;;4900449;29;20060;-89
2022/06/03 12:47:36;;;;;;;3.22;1.70;;;24.50;99.40;;;;;;4899801;29;20139;-88
2022/06/03 12:50:05;;;;;;;3.47;1.75;;;23.90;98.80;;;;;;4922780;29;20130;-89
2022/06/03 12:52:31;;;;;;;2.47;1.60;;;23.60;99.70;;;;;;5015895;28;20064;-89
2022/06/03 12:55:05;;;;;;;2.25;1.30;;;24.00;99.50;;;;;;5026547;23;20041;-89
2022/06/03 12:57:51;;;;;;;2.22;1.52;;;24.50;99.70;;;;;;5031680;28;20060;-88
2022/06/03 13:00:20;;;;;;;3.22;1.90;;;24.50;97.60;;;;;;5033709;28;20053;-89
2022/06/03 13:03:02;;;;;;;3.92;1.70;;;24.70;98.10;;;;;;5033182;28;20049;-89
2022/06/03 13:05:40;;;;;;;3.95;1.48;;;24.90;99.30;;;;;;5032575;28;20137;-89
2022/06/03 13:09:34;;;;;;;3.60;1.90;;;25.10;98.90;;;;;;5032353;28;20133;-89
2022/06/03 13:11:24;;;;;;;3.58;1.45;;;25.20;97.00;;;;;;5041042;22;20115;-89
2022/06/03 13:13:59;;;;;;;4.13;1.70;;;25.40;97.70;;;;;;5015976;28;20060;-89
2022/06/03 13:16:37;;;;;;;4.25;1.40;;;24.80;94.00;;;;;;5022795;23;20059;-89
2022/06/03 13:19:41;;;;;;;4.03;1.40;;;25.00;97.60;;;;;;5023564;23;20069;-90
2022/06/03 13:22:17;;;;;;;3.28;1.52;;;25.50;95.70;;;;;;5003856;23;20484;-89
2022/06/03 13:25:15;;;;;;;3.20;1.42;;;25.70;96.50;;;;;;5032615;28;20401;-89
2022/06/03 13:28:00;;;;;;;2.20;1.40;;;25.90;95.80;;;;;;5015772;28;20058;-87
2022/06/03 13:30:35;;;;;;;3.00;1.30;;;25.90;95.20;;;;;;5018001;28;20056;-86
2022/06/03 13:33:16;;;;;;;2.67;1.48;;;25.80;94.50;;;;;;5035925;28;20388;-85
2022/06/03 13:36:05;;;;;;;4.68;1.30;;;25.90;93.20;;;;;;5019186;28;20044;-85
2022/06/03 13:38:46;;;;;;;2.90;1.60;;;26.00;94.00;;;;;;5035903;28;20385;-86
2022/06/03 13:44:47;;;;;;;3.53;1.48;;;26.00;92.90;;;;;;5035559;28;20050;-86
2022/06/03 13:47:19;;;;;;;2.60;1.48;;;25.20;92.00;;;;;;5037877;28;20420;-85
2022/06/03 13:50:17;;;;;;;2.38;1.40;;;25.50;93.60;;;;;;5024954;28;20055;-85
2022/06/03 13:53:11;;;;;;;3.33;1.40;;;25.70;93.90;;;;;;5037452;28;20373;-86
2022/06/03 13:55:37;;;;;;;3.72;1.70;;;26.10;94.20;;;;;;5017097;28;20405;-86
2022/06/03 13:58:27;;;;;;;2.25;1.30;;;26.00;92.40;;;;;;5018689;28;20053;-85
2022/06/03 14:01:05;;;;;;;4.47;1.30;;;25.80;91.80;;;;;;5018479;28;20049;-85
2022/06/03 14:03:52;;;;;;;3.42;1.33;;;25.90;93.60;;;;;;5018631;28;20053;-86
2022/06/03 14:06:39;;;;;;;2.58;1.35;;;26.00;92.00;;;;;;5034999;28;20053;-85
2022/06/03 14:09:27;;;;;;;3.35;1.70;;;26.10;93.60;;;;;;5018744;28;20052;-85
2022/06/03 14:11:57;;;;;;;3.53;1.50;;;26.10;92.70;;;;;;5034664;28;20046;-84
2022/06/03 14:14:53;;;;;;;3.80;1.50;;;26.10;92.30;;;;;;5018179;28;20130;-86
2022/06/03 14:17:26;;;;;;;2.88;1.30;;;25.90;91.70;;;;;;5034617;28;20132;-86
2022/06/03 14:20:01;;;;;;;3.05;1.40;;;26.00;92.80;;;;;;5034911;28;20049;-85
2022/06/03 14:22:36;;;;;;;;;;;26.00;92.40;;;;;;5018144;28;20060;-85
2022/06/03 14:25:13;;;;;;;4.30;1.52;;;25.90;91.60;;;;;;5034584;28;20432;-85
2022/06/03 14:28:07;;;;;;;4.45;1.30;;;26.00;91.60;;;;;;5018307;28;20045;-85
2022/06/03 14:30:51;;;;;;;3.13;1.20;;;26.10;92.10;;;;;;5034757;28;20385;-85
2022/06/03 14:33:19;;;;;;;3.60;1.30;;;26.00;91.80;;;;;;5034708;28;20045;-85
2022/06/03 14:35:51;;;;;;;3.25;1.40;;;25.70;92.20;;;;;;5034373;28;20432;-85
2022/06/03 14:38:34;;;;;;;4.47;1.80;;;25.40;93.10;;;;;;5017545;28;20488;-86
2022/06/03 14:41:00;;;;;;;3.78;1.35;;;25.30;93.70;;;;;;5033239;28;20489;-85
2022/06/03 14:43:29;;;;;;;2.88;1.48;;;24.70;93.80;;;;;;5034228;28;20099;-84
2022/06/03 14:46:07;;;;;;;2.80;1.15;;;24.80;94.10;;;;;;5017539;28;20038;-85
2022/06/03 14:49:07;;;;;;;3.00;1.42;;;24.70;94.50;;;;;;5034117;28;20076;-85
2022/06/03 14:51:47;;;;;;;3.47;1.40;;;24.50;94.10;;;;;;5017744;28;20041;-85